Decoded Metar for KBKF (BUCKLEY in CO, USA) (IATA:BKF) | Meteo·Mobile Aviation Weather
aviador You're here:

KBKF Decoded Metar

BUCKLEY in CO, USA
Report Time2019-05-22 05:58:00
UTC Time2019-05-22 06:36:23
Flight Rules mvfr MVFR
Wind110° at 05 kt
W.Decomp.*RWY 14: 3.9 kt HW 3.1 kt LCW
Visibility9999 m
Phenomena:N/A
Clouds:Broken 024 Hf
Ceiling2,400 ft
Temp00°C (ISA -4)
Dew Point00°C (100% RH)
AAT-3.8°C
QNH1002 hPa
Density Alt5,686 ft
Elevation5,663 ft
Report Wrong Elevation
Raw Report
KBKF 220558Z 11005KT 10SM BKN024 00/00 A2960 RMK AO2A SLP024
T00010000 10032 20000 58001=

Extra information for KBKF:More info

Metar Taf Metar & Taf Last 4 Metars F.Rules Stats Wind Profile Meteogram Temp Stats Airport Information Weather charts Add Link Nearby VenuesMetar ALERT Operation Metar Decoded Social comments

AIRNAV info for KBKF